sensor_id;sensor_type;location;lat;lon;timestamp;temperature;humidity
17529;DHT22;8882;53.192;8.184;2023-02-12T08:03:14;6.90;99.90
17529;DHT22;8882;53.192;8.184;2023-02-12T08:05:39;6.90;99.90
17529;DHT22;8882;53.192;8.184;2023-02-12T08:08:05;6.90;99.90
17529;DHT22;8882;53.192;8.184;2023-02-12T08:10:30;6.90;99.90
17529;DHT22;8882;53.192;8.184;2023-02-12T08:12:56;6.90;99.90
17529;DHT22;8882;53.192;8.184;2023-02-12T08:15:21;7.00;99.90
17529;DHT22;8882;53.192;8.184;2023-02-12T08:17:47;7.00;99.90
17529;DHT22;8882;53.192;8.184;2023-02-12T08:20:12;6.90;99.90
17529;DHT22;8882;53.192;8.184;2023-02-12T08:22:38;6.90;99.90
17529;DHT22;8882;53.192;8.184;2023-02-12T08:25:03;7.00;99.90
17529;DHT22;8882;53.192;8.184;2023-02-12T08:27:29;7.00;99.90
17529;DHT22;8882;53.192;8.184;2023-02-12T08:29:54;7.00;99.90
17529;DHT22;8882;53.192;8.184;2023-02-12T08:32:20;7.00;99.90
17529;DHT22;8882;53.192;8.184;2023-02-12T08:34:45;7.00;99.90
17529;DHT22;8882;53.192;8.184;2023-02-12T08:37:11;7.00;99.90
17529;DHT22;8882;53.192;8.184;2023-02-12T08:39:37;7.00;99.90
17529;DHT22;8882;53.192;8.184;2023-02-12T08:42:02;7.00;99.90
17529;DHT22;8882;53.192;8.184;2023-02-12T08:44:28;7.00;99.90
17529;DHT22;8882;53.192;8.184;2023-02-12T08:46:54;7.10;99.90
17529;DHT22;8882;53.192;8.184;2023-02-12T08:49:25;7.00;99.90
17529;DHT22;8882;53.192;8.184;2023-02-12T08:51:52;7.00;99.90
17529;DHT22;8882;53.192;8.184;2023-02-12T08:54:23;7.00;99.90
17529;DHT22;8882;53.192;8.184;2023-02-12T08:56:50;7.10;99.90
17529;DHT22;8882;53.192;8.184;2023-02-12T08:59:18;7.10;99.90
17529;DHT22;8882;53.192;8.184;2023-02-12T09:01:44;7.20;99.90
17529;DHT22;8882;53.192;8.184;2023-02-12T09:04:17;7.10;99.90
17529;DHT22;8882;53.192;8.184;2023-02-12T09:06:44;7.20;99.90
17529;DHT22;8882;53.192;8.184;2023-02-12T09:09:10;7.20;99.90
17529;DHT22;8882;53.192;8.184;2023-02-12T09:11:35;7.20;99.90
17529;DHT22;8882;53.192;8.184;2023-02-12T09:14:04;7.10;99.90
17529;DHT22;8882;53.192;8.184;2023-02-12T09:16:32;7.20;99.90
17529;DHT22;8882;53.192;8.184;2023-02-12T09:18:57;7.10;99.90
17529;DHT22;8882;53.192;8.184;2023-02-12T09:21:23;7.20;99.90
17529;DHT22;8882;53.192;8.184;2023-02-12T09:23:49;7.20;99.90
17529;DHT22;8882;53.192;8.184;2023-02-12T09:26:19;7.20;99.90
17529;DHT22;8882;53.192;8.184;2023-02-12T09:28:48;7.20;99.90
17529;DHT22;8882;53.192;8.184;2023-02-12T09:31:18;7.30;99.90
17529;DHT22;8882;53.192;8.184;2023-02-12T09:33:45;7.30;99.90
17529;DHT22;8882;53.192;8.184;2023-02-12T09:36:12;7.30;99.90
17529;DHT22;8882;53.192;8.184;2023-02-12T09:38:38;7.20;99.90
17529;DHT22;8882;53.192;8.184;2023-02-12T09:41:27;7.30;99.90
17529;DHT22;8882;53.192;8.184;2023-02-12T09:43:57;7.30;99.90
17529;DHT22;8882;53.192;8.184;2023-02-12T09:46:41;7.30;99.90
17529;DHT22;8882;53.192;8.184;2023-02-12T09:52:19;7.30;99.90
17529;DHT22;8882;53.192;8.184;2023-02-12T09:54:47;7.30;99.90
17529;DHT22;8882;53.192;8.184;2023-02-12T09:57:27;7.30;99.90
17529;DHT22;8882;53.192;8.184;2023-02-12T10:00:05;7.30;99.90
17529;DHT22;8882;53.192;8.184;2023-02-12T10:02:33;7.30;99.90
17529;DHT22;8882;53.192;8.184;2023-02-12T10:05:00;7.30;99.90
17529;DHT22;8882;53.192;8.184;2023-02-12T10:27:19;7.90;99.90
17529;DHT22;8882;53.192;8.184;2023-02-12T10:29:48;7.80;99.90
17529;DHT22;8882;53.192;8.184;2023-02-12T10:32:27;7.70;99.90
17529;DHT22;8882;53.192;8.184;2023-02-12T10:34:55;7.60;99.90
17529;DHT22;8882;53.192;8.184;2023-02-12T10:37:34;7.60;99.90
17529;DHT22;8882;53.192;8.184;2023-02-12T10:40:16;7.50;99.90
17529;DHT22;8882;53.192;8.184;2023-02-12T10:42:45;7.50;99.90
17529;DHT22;8882;53.192;8.184;2023-02-12T10:45:17;7.40;99.90
17529;DHT22;8882;53.192;8.184;2023-02-12T10:47:44;7.40;99.90
17529;DHT22;8882;53.192;8.184;2023-02-12T10:50:31;7.50;99.90
17529;DHT22;8882;53.192;8.184;2023-02-12T10:53:00;7.40;99.90
17529;DHT22;8882;53.192;8.184;2023-02-12T10:55:28;7.50;99.90
17529;DHT22;8882;53.192;8.184;2023-02-12T10:57:56;7.50;99.90
17529;DHT22;8882;53.192;8.184;2023-02-12T11:00:28;7.60;99.90
17529;DHT22;8882;53.192;8.184;2023-02-12T11:05:40;7.60;99.90
17529;DHT22;8882;53.192;8.184;2023-02-12T11:08:10;7.70;99.90
17529;DHT22;8882;53.192;8.184;2023-02-12T11:10:51;7.80;99.90
17529;DHT22;8882;53.192;8.184;2023-02-12T11:13:25;7.80;99.90
17529;DHT22;8882;53.192;8.184;2023-02-12T11:15:52;7.90;99.90
17529;DHT22;8882;53.192;8.184;2023-02-12T11:18:24;7.90;99.90
17529;DHT22;8882;53.192;8.184;2023-02-12T11:20:53;8.00;99.90
17529;DHT22;8882;53.192;8.184;2023-02-12T11:23:36;8.00;99.90
17529;DHT22;8882;53.192;8.184;2023-02-12T11:26:24;8.00;99.90
17529;DHT22;8882;53.192;8.184;2023-02-12T11:29:00;8.00;99.90
17529;DHT22;8882;53.192;8.184;2023-02-12T11:31:26;8.00;99.90
17529;DHT22;8882;53.192;8.184;2023-02-12T11:34:08;8.00;99.90
17529;DHT22;8882;53.192;8.184;2023-02-12T11:36:37;8.00;99.90
17529;DHT22;8882;53.192;8.184;2023-02-12T11:39:07;8.00;99.90
17529;DHT22;8882;53.192;8.184;2023-02-12T11:41:40;8.00;99.90
17529;DHT22;8882;53.192;8.184;2023-02-12T11:44:19;8.00;99.90
17529;DHT22;8882;53.192;8.184;2023-02-12T11:46:50;8.00;99.90
17529;DHT22;8882;53.192;8.184;2023-02-12T11:49:22;8.10;99.90
17529;DHT22;8882;53.192;8.184;2023-02-12T11:51:48;8.10;99.90
17529;DHT22;8882;53.192;8.184;2023-02-12T11:54:40;8.10;99.90
17529;DHT22;8882;53.192;8.184;2023-02-12T11:57:33;8.10;99.90
17529;DHT22;8882;53.192;8.184;2023-02-12T11:59:56;8.10;99.90
17529;DHT22;8882;53.192;8.184;2023-02-12T12:02:29;8.20;99.90
17529;DHT22;8882;53.192;8.184;2023-02-12T12:05:15;8.10;99.90
17529;DHT22;8882;53.192;8.184;2023-02-12T12:07:49;8.10;99.90
17529;DHT22;8882;53.192;8.184;2023-02-12T12:10:30;8.10;99.90
17529;DHT22;8882;53.192;8.184;2023-02-12T12:13:05;8.10;99.90
17529;DHT22;8882;53.192;8.184;2023-02-12T12:15:45;8.10;99.90
17529;DHT22;8882;53.192;8.184;2023-02-12T12:18:52;8.10;99.90
17529;DHT22;8882;53.192;8.184;2023-02-12T12:22:03;8.00;99.90
17529;DHT22;8882;53.192;8.184;2023-02-12T12:24:39;8.00;99.90
17529;DHT22;8882;53.192;8.184;2023-02-12T12:27:17;7.90;99.90
17529;DHT22;8882;53.192;8.184;2023-02-12T12:31:09;7.90;99.90
17529;DHT22;8882;53.192;8.184;2023-02-12T12:33:38;8.10;99.90
17529;DHT22;8882;53.192;8.184;2023-02-12T12:39:21;7.90;99.90
17529;DHT22;8882;53.192;8.184;2023-02-12T12:42:15;8.00;99.90
17529;DHT22;8882;53.192;8.184;2023-02-12T12:47:50;8.10;99.90
17529;DHT22;8882;53.192;8.184;2023-02-12T12:53:13;8.10;99.90
17529;DHT22;8882;53.192;8.184;2023-02-12T12:55:49;8.00;99.90
17529;DHT22;8882;53.192;8.184;2023-02-12T12:58:25;8.10;99.90
17529;DHT22;8882;53.192;8.184;2023-02-12T13:01:55;8.10;99.90
17529;DHT22;8882;53.192;8.184;2023-02-12T13:04:08;8.20;99.90
17529;DHT22;8882;53.192;8.184;2023-02-12T13:18:16;8.30;99.90
17529;DHT22;8882;53.192;8.184;2023-02-12T13:23:40;8.40;99.90
17529;DHT22;8882;53.192;8.184;2023-02-12T13:28:54;8.40;99.90
17529;DHT22;8882;53.192;8.184;2023-02-12T13:31:23;8.40;99.90
17529;DHT22;8882;53.192;8.184;2023-02-12T13:33:59;8.40;99.90
17529;DHT22;8882;53.192;8.184;2023-02-12T13:36:26;8.50;99.90
17529;DHT22;8882;53.192;8.184;2023-02-12T13:39:21;8.50;99.90
17529;DHT22;8882;53.192;8.184;2023-02-12T13:44:49;8.60;99.90
17529;DHT22;8882;53.192;8.184;2023-02-12T13:52:33;8.60;99.90
17529;DHT22;8882;53.192;8.184;2023-02-12T13:55:15;8.60;99.90
17529;DHT22;8882;53.192;8.184;2023-02-12T13:57:45;8.60;99.90
17529;DHT22;8882;53.192;8.184;2023-02-12T14:03:12;8.60;99.90
17529;DHT22;8882;53.192;8.184;2023-02-12T14:05:38;8.60;99.90
17529;DHT22;8882;53.192;8.184;2023-02-12T14:08:04;8.80;99.90
17529;DHT22;8882;53.192;8.184;2023-02-12T14:10:40;8.70;99.90
17529;DHT22;8882;53.192;8.184;2023-02-12T14:13:21;8.90;99.90
17529;DHT22;8882;53.192;8.184;2023-02-12T14:15:53;9.20;99.90
17529;DHT22;8882;53.192;8.184;2023-02-12T14:18:27;9.20;99.90
17529;DHT22;8882;53.192;8.184;2023-02-12T14:23:34;9.00;99.90
17529;DHT22;8882;53.192;8.184;2023-02-12T14:26:01;8.90;99.90
17529;DHT22;8882;53.192;8.184;2023-02-12T14:28:48;8.90;99.90
17529;DHT22;8882;53.192;8.184;2023-02-12T14:33:44;8.80;99.90
17529;DHT22;8882;53.192;8.184;2023-02-12T14:49:36;8.70;99.90
17529;DHT22;8882;53.192;8.184;2023-02-12T14:52:11;8.70;99.90
17529;DHT22;8882;53.192;8.184;2023-02-12T14:57:25;8.80;99.90
17529;DHT22;8882;53.192;8.184;2023-02-12T14:59:58;8.80;99.90
17529;DHT22;8882;53.192;8.184;2023-02-12T15:02:30;8.80;99.90
17529;DHT22;8882;53.192;8.184;2023-02-12T15:05:01;8.70;99.90
17529;DHT22;8882;53.192;8.184;2023-02-12T15:07:40;8.70;99.90
17529;DHT22;8882;53.192;8.184;2023-02-12T15:10:14;8.70;99.90
17529;DHT22;8882;53.192;8.184;2023-02-12T15:12:45;8.70;99.90
17529;DHT22;8882;53.192;8.184;2023-02-12T15:15:22;8.70;99.90
17529;DHT22;8882;53.192;8.184;2023-02-12T15:21:15;8.70;99.90
17529;DHT22;8882;53.192;8.184;2023-02-12T15:23:43;8.70;99.90
17529;DHT22;8882;53.192;8.184;2023-02-12T15:26:20;8.70;99.90
17529;DHT22;8882;53.192;8.184;2023-02-12T15:28:49;8.70;99.90
17529;DHT22;8882;53.192;8.184;2023-02-12T15:31:18;8.70;99.90
17529;DHT22;8882;53.192;8.184;2023-02-12T15:33:46;8.70;99.90
17529;DHT22;8882;53.192;8.184;2023-02-12T15:36:17;8.70;99.90
17529;DHT22;8882;53.192;8.184;2023-02-12T15:38:48;8.60;99.90
17529;DHT22;8882;53.192;8.184;2023-02-12T15:44:01;8.90;99.90
17529;DHT22;8882;53.192;8.184;2023-02-12T15:46:27;8.90;99.90
17529;DHT22;8882;53.192;8.184;2023-02-12T15:48:52;8.90;99.90
17529;DHT22;8882;53.192;8.184;2023-02-12T15:53:53;8.90;99.90
17529;DHT22;8882;53.192;8.184;2023-02-12T15:56:21;8.90;99.90
17529;DHT22;8882;53.192;8.184;2023-02-12T15:58:58;8.80;99.90
17529;DHT22;8882;53.192;8.184;2023-02-12T16:01:29;8.80;99.90
17529;DHT22;8882;53.192;8.184;2023-02-12T16:04:04;8.70;99.90
17529;DHT22;8882;53.192;8.184;2023-02-12T16:06:32;8.70;99.90
17529;DHT22;8882;53.192;8.184;2023-02-12T16:09:06;8.70;99.90
17529;DHT22;8882;53.192;8.184;2023-02-12T16:11:32;8.60;99.90
17529;DHT22;8882;53.192;8.184;2023-02-12T16:14:04;8.60;99.90
17529;DHT22;8882;53.192;8.184;2023-02-12T16:16:48;8.60;99.90
17529;DHT22;8882;53.192;8.184;2023-02-12T16:19:23;8.60;99.90
17529;DHT22;8882;53.192;8.184;2023-02-12T16:24:34;8.60;99.90
17529;DHT22;8882;53.192;8.184;2023-02-12T16:27:15;8.50;99.90
17529;DHT22;8882;53.192;8.184;2023-02-12T16:29:56;8.50;99.90
17529;DHT22;8882;53.192;8.184;2023-02-12T16:32:40;8.50;99.90
17529;DHT22;8882;53.192;8.184;2023-02-12T16:47:54;8.70;99.90
17529;DHT22;8882;53.192;8.184;2023-02-12T16:50:21;8.80;99.90
17529;DHT22;8882;53.192;8.184;2023-02-12T16:53:01;8.80;99.90
17529;DHT22;8882;53.192;8.184;2023-02-12T16:55:27;8.80;99.90
17529;DHT22;8882;53.192;8.184;2023-02-12T16:57:52;8.90;99.90
17529;DHT22;8882;53.192;8.184;2023-02-12T17:00:18;8.90;99.90
17529;DHT22;8882;53.192;8.184;2023-02-12T17:02:44;8.90;99.90
17529;DHT22;8882;53.192;8.184;2023-02-12T17:05:12;8.90;99.90
17529;DHT22;8882;53.192;8.184;2023-02-12T17:07:39;8.90;99.90
17529;DHT22;8882;53.192;8.184;2023-02-12T17:10:05;9.00;99.90
17529;DHT22;8882;53.192;8.184;2023-02-12T17:12:31;9.00;99.90
17529;DHT22;8882;53.192;8.184;2023-02-12T17:14:56;9.00;99.90
17529;DHT22;8882;53.192;8.184;2023-02-12T17:17:22;8.90;99.90
17529;DHT22;8882;53.192;8.184;2023-02-12T17:19:47;8.90;99.90
17529;DHT22;8882;53.192;8.184;2023-02-12T17:22:20;8.90;99.90
17529;DHT22;8882;53.192;8.184;2023-02-12T17:24:47;9.00;99.90
17529;DHT22;8882;53.192;8.184;2023-02-12T17:27:16;9.00;99.90
17529;DHT22;8882;53.192;8.184;2023-02-12T17:29:42;9.00;99.90
17529;DHT22;8882;53.192;8.184;2023-02-12T17:32:08;9.00;99.90
17529;DHT22;8882;53.192;8.184;2023-02-12T17:34:33;9.00;99.90
17529;DHT22;8882;53.192;8.184;2023-02-12T17:37:02;8.90;99.90
17529;DHT22;8882;53.192;8.184;2023-02-12T17:39:28;8.90;99.90
17529;DHT22;8882;53.192;8.184;2023-02-12T17:41:53;8.80;99.90
17529;DHT22;8882;53.192;8.184;2023-02-12T17:44:19;8.80;99.90
17529;DHT22;8882;53.192;8.184;2023-02-12T17:46:45;8.80;99.90
17529;DHT22;8882;53.192;8.184;2023-02-12T17:49:11;8.80;99.90
17529;DHT22;8882;53.192;8.184;2023-02-12T17:51:37;8.80;99.90
17529;DHT22;8882;53.192;8.184;2023-02-12T17:54:03;8.80;99.90
17529;DHT22;8882;53.192;8.184;2023-02-12T17:56:28;8.80;99.90
17529;DHT22;8882;53.192;8.184;2023-02-12T17:58:54;8.80;99.90
17529;DHT22;8882;53.192;8.184;2023-02-12T18:01:21;8.80;99.90
17529;DHT22;8882;53.192;8.184;2023-02-12T18:03:47;8.80;99.90
17529;DHT22;8882;53.192;8.184;2023-02-12T18:06:21;8.80;99.90
17529;DHT22;8882;53.192;8.184;2023-02-12T18:08:48;8.80;99.90
17529;DHT22;8882;53.192;8.184;2023-02-12T18:11:13;8.80;99.90
17529;DHT22;8882;53.192;8.184;2023-02-12T18:13:39;8.80;99.90
17529;DHT22;8882;53.192;8.184;2023-02-12T18:16:07;8.80;99.90
17529;DHT22;8882;53.192;8.184;2023-02-12T18:18:33;8.80;99.90
17529;DHT22;8882;53.192;8.184;2023-02-12T18:20:59;8.80;99.90
17529;DHT22;8882;53.192;8.184;2023-02-12T18:23:24;8.80;99.90
17529;DHT22;8882;53.192;8.184;2023-02-12T18:25:50;8.80;99.90
17529;DHT22;8882;53.192;8.184;2023-02-12T18:28:15;8.80;99.90
17529;DHT22;8882;53.192;8.184;2023-02-12T18:30:41;8.80;99.90
17529;DHT22;8882;53.192;8.184;2023-02-12T18:33:08;8.70;99.90
17529;DHT22;8882;53.192;8.184;2023-02-12T18:35:34;8.70;99.90
17529;DHT22;8882;53.192;8.184;2023-02-12T18:38:01;8.80;99.90
17529;DHT22;8882;53.192;8.184;2023-02-12T18:40:27;8.70;99.90
17529;DHT22;8882;53.192;8.184;2023-02-12T18:42:52;8.70;99.90
17529;DHT22;8882;53.192;8.184;2023-02-12T18:45:18;8.70;99.90
17529;DHT22;8882;53.192;8.184;2023-02-12T18:47:44;8.70;99.90
17529;DHT22;8882;53.192;8.184;2023-02-12T18:50:10;8.70;99.90
17529;DHT22;8882;53.192;8.184;2023-02-12T18:52:36;8.70;99.90
17529;DHT22;8882;53.192;8.184;2023-02-12T18:55:02;8.60;99.90
17529;DHT22;8882;53.192;8.184;2023-02-12T18:57:28;8.60;99.90
17529;DHT22;8882;53.192;8.184;2023-02-12T18:59:55;8.60;99.90
17529;DHT22;8882;53.192;8.184;2023-02-12T19:02:21;8.50;99.90
17529;DHT22;8882;53.192;8.184;2023-02-12T19:04:46;8.50;99.90
17529;DHT22;8882;53.192;8.184;2023-02-12T19:07:12;8.50;99.90
17529;DHT22;8882;53.192;8.184;2023-02-12T19:09:37;8.50;99.90
17529;DHT22;8882;53.192;8.184;2023-02-12T19:12:03;8.60;99.90
17529;DHT22;8882;53.192;8.184;2023-02-12T19:14:29;8.50;99.90
17529;DHT22;8882;53.192;8.184;2023-02-12T19:16:55;8.50;99.90
17529;DHT22;8882;53.192;8.184;2023-02-12T19:19:21;8.50;99.90
17529;DHT22;8882;53.192;8.184;2023-02-12T19:21:47;8.50;99.90
17529;DHT22;8882;53.192;8.184;2023-02-12T19:24:13;8.50;99.90
17529;DHT22;8882;53.192;8.184;2023-02-12T19:26:40;8.50;99.90
17529;DHT22;8882;53.192;8.184;2023-02-12T19:29:06;8.40;99.90
17529;DHT22;8882;53.192;8.184;2023-02-12T19:31:37;8.40;99.90
17529;DHT22;8882;53.192;8.184;2023-02-12T19:34:05;8.30;99.90
17529;DHT22;8882;53.192;8.184;2023-02-12T19:36:33;8.30;99.90
17529;DHT22;8882;53.192;8.184;2023-02-12T19:39:00;8.30;99.90
17529;DHT22;8882;53.192;8.184;2023-02-12T19:41:28;8.30;99.90
17529;DHT22;8882;53.192;8.184;2023-02-12T19:43:56;8.30;99.90
17529;DHT22;8882;53.192;8.184;2023-02-12T19:46:22;8.30;99.90
17529;DHT22;8882;53.192;8.184;2023-02-12T19:48:48;8.30;99.90
17529;DHT22;8882;53.192;8.184;2023-02-12T19:51:19;8.30;99.90
17529;DHT22;8882;53.192;8.184;2023-02-12T19:53:45;8.30;99.90
17529;DHT22;8882;53.192;8.184;2023-02-12T19:56:12;8.20;99.90
17529;DHT22;8882;53.192;8.184;2023-02-12T19:58:38;8.20;99.90
17529;DHT22;8882;53.192;8.184;2023-02-12T20:01:23;8.30;99.90
17529;DHT22;8882;53.192;8.184;2023-02-12T20:03:49;8.20;99.90
17529;DHT22;8882;53.192;8.184;2023-02-12T20:06:18;8.20;99.90
17529;DHT22;8882;53.192;8.184;2023-02-12T20:08:45;8.20;99.90
17529;DHT22;8882;53.192;8.184;2023-02-12T20:11:14;8.20;99.90
17529;DHT22;8882;53.192;8.184;2023-02-12T20:13:39;8.20;99.90
17529;DHT22;8882;53.192;8.184;2023-02-12T20:16:07;8.20;99.90
17529;DHT22;8882;53.192;8.184;2023-02-12T20:18:33;8.20;99.90
17529;DHT22;8882;53.192;8.184;2023-02-12T20:20:59;8.20;99.90
17529;DHT22;8882;53.192;8.184;2023-02-12T20:23:25;8.20;99.90
17529;DHT22;8882;53.192;8.184;2023-02-12T20:25:51;8.20;99.90
17529;DHT22;8882;53.192;8.184;2023-02-12T20:28:17;8.10;99.90
17529;DHT22;8882;53.192;8.184;2023-02-12T20:30:43;8.10;99.90
17529;DHT22;8882;53.192;8.184;2023-02-12T20:33:09;8.10;99.90
17529;DHT22;8882;53.192;8.184;2023-02-12T20:35:35;8.10;99.90
17529;DHT22;8882;53.192;8.184;2023-02-12T20:38:03;8.10;99.90
17529;DHT22;8882;53.192;8.184;2023-02-12T20:40:28;8.10;99.90
17529;DHT22;8882;53.192;8.184;2023-02-12T20:42:54;8.10;99.90
17529;DHT22;8882;53.192;8.184;2023-02-12T20:45:19;8.10;99.90
17529;DHT22;8882;53.192;8.184;2023-02-12T20:47:45;8.10;99.90
17529;DHT22;8882;53.192;8.184;2023-02-12T20:50:10;8.10;99.90
17529;DHT22;8882;53.192;8.184;2023-02-12T20:52:36;8.10;99.90
17529;DHT22;8882;53.192;8.184;2023-02-12T20:55:02;8.10;99.90
17529;DHT22;8882;53.192;8.184;2023-02-12T20:57:28;8.10;99.90
17529;DHT22;8882;53.192;8.184;2023-02-12T20:59:55;8.10;99.90
17529;DHT22;8882;53.192;8.184;2023-02-12T21:02:21;8.00;99.90
17529;DHT22;8882;53.192;8.184;2023-02-12T21:04:49;8.00;99.90
17529;DHT22;8882;53.192;8.184;2023-02-12T21:07:14;8.00;99.90
17529;DHT22;8882;53.192;8.184;2023-02-12T21:09:40;8.00;99.90
17529;DHT22;8882;53.192;8.184;2023-02-12T21:12:05;7.90;99.90
17529;DHT22;8882;53.192;8.184;2023-02-12T21:14:31;7.90;99.90
17529;DHT22;8882;53.192;8.184;2023-02-12T21:16:56;7.90;99.90
17529;DHT22;8882;53.192;8.184;2023-02-12T21:19:23;7.90;99.90
17529;DHT22;8882;53.192;8.184;2023-02-12T21:21:49;7.90;99.90
17529;DHT22;8882;53.192;8.184;2023-02-12T21:24:19;7.90;99.90
17529;DHT22;8882;53.192;8.184;2023-02-12T21:26:46;7.80;99.90
17529;DHT22;8882;53.192;8.184;2023-02-12T21:31:23;8.00;99.90
17529;DHT22;8882;53.192;8.184;2023-02-12T21:33:51;8.30;99.90
17529;DHT22;8882;53.192;8.184;2023-02-12T21:36:23;8.30;99.90
17529;DHT22;8882;53.192;8.184;2023-02-12T21:38:49;8.20;99.90
17529;DHT22;8882;53.192;8.184;2023-02-12T21:41:24;8.10;99.90
17529;DHT22;8882;53.192;8.184;2023-02-12T21:43:58;8.00;99.90
17529;DHT22;8882;53.192;8.184;2023-02-12T21:46:24;7.90;99.90
17529;DHT22;8882;53.192;8.184;2023-02-12T21:48:50;7.90;99.90
17529;DHT22;8882;53.192;8.184;2023-02-12T21:51:17;7.80;99.90
17529;DHT22;8882;53.192;8.184;2023-02-12T21:53:44;7.80;99.90
17529;DHT22;8882;53.192;8.184;2023-02-12T21:56:09;7.70;99.90
17529;DHT22;8882;53.192;8.184;2023-02-12T21:58:35;7.70;99.90
